sensor_id;sensor_type;location;lat;lon;timestamp;temperature;humidity
20380;DHT22;10349;48.666;8.948;2023-07-20T00:00:49;18.30;99.90
20380;DHT22;10349;48.666;8.948;2023-07-20T00:03:19;18.30;99.90
20380;DHT22;10349;48.666;8.948;2023-07-20T00:05:49;18.30;99.90
20380;DHT22;10349;48.666;8.948;2023-07-20T00:08:15;18.10;99.90
20380;DHT22;10349;48.666;8.948;2023-07-20T00:10:41;18.10;99.90
20380;DHT22;10349;48.666;8.948;2023-07-20T00:13:07;18.10;99.90
20380;DHT22;10349;48.666;8.948;2023-07-20T00:15:33;18.00;99.90
20380;DHT22;10349;48.666;8.948;2023-07-20T00:17:59;18.00;99.90
20380;DHT22;10349;48.666;8.948;2023-07-20T00:20:25;17.90;99.90
20380;DHT22;10349;48.666;8.948;2023-07-20T00:22:51;17.90;99.90
20380;DHT22;10349;48.666;8.948;2023-07-20T00:25:18;17.90;99.90
20380;DHT22;10349;48.666;8.948;2023-07-20T00:27:43;17.90;99.90
20380;DHT22;10349;48.666;8.948;2023-07-20T00:30:10;17.80;99.90
20380;DHT22;10349;48.666;8.948;2023-07-20T00:32:35;17.80;99.90
20380;DHT22;10349;48.666;8.948;2023-07-20T00:35:01;17.70;99.90
20380;DHT22;10349;48.666;8.948;2023-07-20T00:37:28;17.70;99.90
20380;DHT22;10349;48.666;8.948;2023-07-20T00:39:54;17.70;99.90
20380;DHT22;10349;48.666;8.948;2023-07-20T00:42:20;17.60;99.90
20380;DHT22;10349;48.666;8.948;2023-07-20T00:44:45;17.60;99.90
20380;DHT22;10349;48.666;8.948;2023-07-20T00:47:11;17.60;99.90
20380;DHT22;10349;48.666;8.948;2023-07-20T00:49:37;17.60;99.90
20380;DHT22;10349;48.666;8.948;2023-07-20T00:52:04;17.60;99.90
20380;DHT22;10349;48.666;8.948;2023-07-20T00:54:32;17.60;99.90
20380;DHT22;10349;48.666;8.948;2023-07-20T00:56:58;17.50;99.90
20380;DHT22;10349;48.666;8.948;2023-07-20T00:59:26;17.50;99.90
20380;DHT22;10349;48.666;8.948;2023-07-20T01:01:52;17.40;99.90
20380;DHT22;10349;48.666;8.948;2023-07-20T01:04:18;17.40;99.90
20380;DHT22;10349;48.666;8.948;2023-07-20T01:10:06;17.40;99.90
20380;DHT22;10349;48.666;8.948;2023-07-20T01:12:45;17.30;99.90
20380;DHT22;10349;48.666;8.948;2023-07-20T01:15:12;17.30;99.90
20380;DHT22;10349;48.666;8.948;2023-07-20T01:17:38;17.30;99.90
20380;DHT22;10349;48.666;8.948;2023-07-20T01:20:07;17.30;99.90
20380;DHT22;10349;48.666;8.948;2023-07-20T01:26:02;17.20;99.90
20380;DHT22;10349;48.666;8.948;2023-07-20T01:31:33;17.30;99.90
20380;DHT22;10349;48.666;8.948;2023-07-20T01:34:01;17.20;99.90
20380;DHT22;10349;48.666;8.948;2023-07-20T01:36:32;17.20;99.90
20380;DHT22;10349;48.666;8.948;2023-07-20T01:38:58;17.20;99.90
20380;DHT22;10349;48.666;8.948;2023-07-20T01:41:24;17.20;99.90
20380;DHT22;10349;48.666;8.948;2023-07-20T01:43:50;17.10;99.90
20380;DHT22;10349;48.666;8.948;2023-07-20T01:46:16;17.10;99.90
20380;DHT22;10349;48.666;8.948;2023-07-20T01:48:41;17.10;99.90
20380;DHT22;10349;48.666;8.948;2023-07-20T01:51:08;17.20;99.90
20380;DHT22;10349;48.666;8.948;2023-07-20T01:53:33;17.20;99.90
20380;DHT22;10349;48.666;8.948;2023-07-20T01:55:59;17.30;99.90
20380;DHT22;10349;48.666;8.948;2023-07-20T01:58:25;17.20;99.90
20380;DHT22;10349;48.666;8.948;2023-07-20T02:00:51;17.20;99.90
20380;DHT22;10349;48.666;8.948;2023-07-20T02:03:17;17.10;99.90
20380;DHT22;10349;48.666;8.948;2023-07-20T02:05:43;17.10;99.90
20380;DHT22;10349;48.666;8.948;2023-07-20T02:08:09;17.10;99.90
20380;DHT22;10349;48.666;8.948;2023-07-20T02:10:35;17.10;99.90
20380;DHT22;10349;48.666;8.948;2023-07-20T02:13:01;17.10;99.90
20380;DHT22;10349;48.666;8.948;2023-07-20T02:15:27;17.00;99.90
20380;DHT22;10349;48.666;8.948;2023-07-20T02:17:53;17.00;99.90
20380;DHT22;10349;48.666;8.948;2023-07-20T02:20:19;16.90;99.90
20380;DHT22;10349;48.666;8.948;2023-07-20T02:22:45;16.90;99.90
20380;DHT22;10349;48.666;8.948;2023-07-20T02:25:11;16.80;99.90
20380;DHT22;10349;48.666;8.948;2023-07-20T02:27:37;16.70;99.90
20380;DHT22;10349;48.666;8.948;2023-07-20T02:30:04;16.80;99.90
20380;DHT22;10349;48.666;8.948;2023-07-20T02:32:31;16.60;99.90
20380;DHT22;10349;48.666;8.948;2023-07-20T02:34:57;16.70;99.90
20380;DHT22;10349;48.666;8.948;2023-07-20T02:37:23;16.50;99.90
20380;DHT22;10349;48.666;8.948;2023-07-20T02:39:49;16.40;99.90
20380;DHT22;10349;48.666;8.948;2023-07-20T02:42:14;16.30;99.90
20380;DHT22;10349;48.666;8.948;2023-07-20T02:44:41;16.10;99.90
20380;DHT22;10349;48.666;8.948;2023-07-20T02:47:06;16.00;99.90
20380;DHT22;10349;48.666;8.948;2023-07-20T02:49:33;15.70;99.90
20380;DHT22;10349;48.666;8.948;2023-07-20T02:51:58;15.60;99.90
20380;DHT22;10349;48.666;8.948;2023-07-20T02:54:24;15.50;99.90
20380;DHT22;10349;48.666;8.948;2023-07-20T02:56:50;15.50;99.90
20380;DHT22;10349;48.666;8.948;2023-07-20T02:59:15;15.50;99.90
20380;DHT22;10349;48.666;8.948;2023-07-20T03:01:41;15.50;99.90
20380;DHT22;10349;48.666;8.948;2023-07-20T03:04:12;15.40;99.90
20380;DHT22;10349;48.666;8.948;2023-07-20T03:06:38;15.50;99.90
20380;DHT22;10349;48.666;8.948;2023-07-20T03:09:04;15.60;99.90
20380;DHT22;10349;48.666;8.948;2023-07-20T03:11:31;15.50;99.90
20380;DHT22;10349;48.666;8.948;2023-07-20T03:13:57;15.40;99.90
20380;DHT22;10349;48.666;8.948;2023-07-20T03:16:24;15.40;99.90
20380;DHT22;10349;48.666;8.948;2023-07-20T03:18:51;15.40;99.90
20380;DHT22;10349;48.666;8.948;2023-07-20T03:21:17;15.40;99.90
20380;DHT22;10349;48.666;8.948;2023-07-20T03:23:43;15.30;99.90
20380;DHT22;10349;48.666;8.948;2023-07-20T03:26:10;15.20;99.90
20380;DHT22;10349;48.666;8.948;2023-07-20T03:28:36;15.10;99.90
20380;DHT22;10349;48.666;8.948;2023-07-20T03:31:05;15.20;99.90
20380;DHT22;10349;48.666;8.948;2023-07-20T03:33:34;15.10;99.90
20380;DHT22;10349;48.666;8.948;2023-07-20T03:36:00;15.10;99.90
20380;DHT22;10349;48.666;8.948;2023-07-20T03:38:26;15.10;99.90
20380;DHT22;10349;48.666;8.948;2023-07-20T03:40:56;15.20;99.90
20380;DHT22;10349;48.666;8.948;2023-07-20T03:43:23;15.30;99.90
20380;DHT22;10349;48.666;8.948;2023-07-20T03:45:49;15.30;99.90
20380;DHT22;10349;48.666;8.948;2023-07-20T03:48:19;15.30;99.90
20380;DHT22;10349;48.666;8.948;2023-07-20T03:50:46;15.30;99.90
20380;DHT22;10349;48.666;8.948;2023-07-20T03:53:13;15.40;99.90
20380;DHT22;10349;48.666;8.948;2023-07-20T03:55:39;15.30;99.90
20380;DHT22;10349;48.666;8.948;2023-07-20T03:58:07;15.20;99.90
20380;DHT22;10349;48.666;8.948;2023-07-20T04:00:33;15.10;99.90
20380;DHT22;10349;48.666;8.948;2023-07-20T04:02:59;15.10;99.90
20380;DHT22;10349;48.666;8.948;2023-07-20T04:05:25;15.10;99.90
20380;DHT22;10349;48.666;8.948;2023-07-20T04:07:51;15.00;99.90
20380;DHT22;10349;48.666;8.948;2023-07-20T04:10:18;15.00;99.90
20380;DHT22;10349;48.666;8.948;2023-07-20T04:12:44;15.00;99.90
20380;DHT22;10349;48.666;8.948;2023-07-20T04:15:11;15.00;99.90
20380;DHT22;10349;48.666;8.948;2023-07-20T04:17:37;15.10;99.90
20380;DHT22;10349;48.666;8.948;2023-07-20T04:20:03;15.10;99.90
20380;DHT22;10349;48.666;8.948;2023-07-20T04:22:29;15.10;99.90
20380;DHT22;10349;48.666;8.948;2023-07-20T04:24:56;15.20;99.90
20380;DHT22;10349;48.666;8.948;2023-07-20T04:27:22;15.20;99.90
20380;DHT22;10349;48.666;8.948;2023-07-20T04:29:47;15.20;99.90
20380;DHT22;10349;48.666;8.948;2023-07-20T04:32:13;15.30;99.90
20380;DHT22;10349;48.666;8.948;2023-07-20T04:34:39;15.40;99.90
20380;DHT22;10349;48.666;8.948;2023-07-20T04:37:05;15.40;99.90
20380;DHT22;10349;48.666;8.948;2023-07-20T04:39:30;15.50;99.90
20380;DHT22;10349;48.666;8.948;2023-07-20T04:41:57;15.60;99.90
20380;DHT22;10349;48.666;8.948;2023-07-20T04:44:24;15.60;99.90
20380;DHT22;10349;48.666;8.948;2023-07-20T04:46:50;15.70;99.90
20380;DHT22;10349;48.666;8.948;2023-07-20T04:49:15;15.70;99.90
20380;DHT22;10349;48.666;8.948;2023-07-20T04:51:43;15.80;99.90
20380;DHT22;10349;48.666;8.948;2023-07-20T04:54:09;15.80;99.90
20380;DHT22;10349;48.666;8.948;2023-07-20T04:56:37;15.90;99.90
20380;DHT22;10349;48.666;8.948;2023-07-20T04:59:07;15.80;99.90
20380;DHT22;10349;48.666;8.948;2023-07-20T05:01:33;15.80;99.90
20380;DHT22;10349;48.666;8.948;2023-07-20T05:04:02;15.80;99.90
20380;DHT22;10349;48.666;8.948;2023-07-20T05:06:27;15.90;99.90
20380;DHT22;10349;48.666;8.948;2023-07-20T05:08:53;16.10;99.90
20380;DHT22;10349;48.666;8.948;2023-07-20T05:11:19;16.10;99.90
20380;DHT22;10349;48.666;8.948;2023-07-20T05:13:45;16.20;99.90
20380;DHT22;10349;48.666;8.948;2023-07-20T05:16:11;16.30;99.90
20380;DHT22;10349;48.666;8.948;2023-07-20T05:18:36;16.30;99.90
20380;DHT22;10349;48.666;8.948;2023-07-20T05:21:03;16.30;99.90
20380;DHT22;10349;48.666;8.948;2023-07-20T05:23:28;16.40;99.90
20380;DHT22;10349;48.666;8.948;2023-07-20T05:25:55;16.40;99.90
20380;DHT22;10349;48.666;8.948;2023-07-20T05:28:22;16.50;99.90
20380;DHT22;10349;48.666;8.948;2023-07-20T05:30:48;16.60;99.90
20380;DHT22;10349;48.666;8.948;2023-07-20T05:33:13;16.60;99.90
20380;DHT22;10349;48.666;8.948;2023-07-20T05:35:39;16.70;99.90
20380;DHT22;10349;48.666;8.948;2023-07-20T05:38:05;16.70;99.90
20380;DHT22;10349;48.666;8.948;2023-07-20T05:40:32;16.80;99.90
20380;DHT22;10349;48.666;8.948;2023-07-20T05:42:57;16.80;99.90
20380;DHT22;10349;48.666;8.948;2023-07-20T05:45:24;16.90;99.90
20380;DHT22;10349;48.666;8.948;2023-07-20T05:47:50;17.10;99.90
20380;DHT22;10349;48.666;8.948;2023-07-20T05:50:15;17.10;99.90
20380;DHT22;10349;48.666;8.948;2023-07-20T05:52:41;17.30;99.90
20380;DHT22;10349;48.666;8.948;2023-07-20T05:55:07;17.30;99.90
20380;DHT22;10349;48.666;8.948;2023-07-20T05:57:33;17.30;99.90
20380;DHT22;10349;48.666;8.948;2023-07-20T05:59:59;17.40;99.90
20380;DHT22;10349;48.666;8.948;2023-07-20T06:02:24;17.40;99.90
20380;DHT22;10349;48.666;8.948;2023-07-20T06:04:50;17.60;99.90
20380;DHT22;10349;48.666;8.948;2023-07-20T06:07:16;17.60;99.90
20380;DHT22;10349;48.666;8.948;2023-07-20T06:09:41;17.80;99.90
20380;DHT22;10349;48.666;8.948;2023-07-20T06:12:08;17.90;99.90
20380;DHT22;10349;48.666;8.948;2023-07-20T06:14:34;17.90;99.90
20380;DHT22;10349;48.666;8.948;2023-07-20T06:17:00;17.90;99.90
20380;DHT22;10349;48.666;8.948;2023-07-20T06:19:26;18.00;99.90
20380;DHT22;10349;48.666;8.948;2023-07-20T06:21:51;18.00;99.90
20380;DHT22;10349;48.666;8.948;2023-07-20T06:24:17;18.00;99.90
20380;DHT22;10349;48.666;8.948;2023-07-20T06:26:43;18.10;99.90
20380;DHT22;10349;48.666;8.948;2023-07-20T06:29:09;18.10;99.90
20380;DHT22;10349;48.666;8.948;2023-07-20T06:31:35;18.10;99.90
20380;DHT22;10349;48.666;8.948;2023-07-20T06:34:01;18.10;99.90
20380;DHT22;10349;48.666;8.948;2023-07-20T06:36:27;18.10;99.90
20380;DHT22;10349;48.666;8.948;2023-07-20T06:38:53;18.20;99.90
20380;DHT22;10349;48.666;8.948;2023-07-20T06:41:19;18.20;99.90
20380;DHT22;10349;48.666;8.948;2023-07-20T06:43:45;18.30;99.90
20380;DHT22;10349;48.666;8.948;2023-07-20T06:46:11;18.40;99.90
20380;DHT22;10349;48.666;8.948;2023-07-20T06:48:36;18.40;99.90
20380;DHT22;10349;48.666;8.948;2023-07-20T06:51:02;18.50;99.90
20380;DHT22;10349;48.666;8.948;2023-07-20T06:53:29;18.50;99.90
20380;DHT22;10349;48.666;8.948;2023-07-20T06:55:54;18.50;99.90
20380;DHT22;10349;48.666;8.948;2023-07-20T06:58:23;18.60;99.90
20380;DHT22;10349;48.666;8.948;2023-07-20T07:00:49;18.70;99.90
20380;DHT22;10349;48.666;8.948;2023-07-20T07:03:14;18.80;99.90
20380;DHT22;10349;48.666;8.948;2023-07-20T07:05:40;18.90;99.90
20380;DHT22;10349;48.666;8.948;2023-07-20T07:08:06;19.00;99.90
20380;DHT22;10349;48.666;8.948;2023-07-20T07:10:34;19.10;99.90
20380;DHT22;10349;48.666;8.948;2023-07-20T07:13:00;19.10;99.90
20380;DHT22;10349;48.666;8.948;2023-07-20T07:15:26;19.10;99.90
20380;DHT22;10349;48.666;8.948;2023-07-20T07:17:53;19.10;99.90
20380;DHT22;10349;48.666;8.948;2023-07-20T07:20:18;19.20;99.90
20380;DHT22;10349;48.666;8.948;2023-07-20T07:22:44;19.40;99.90
20380;DHT22;10349;48.666;8.948;2023-07-20T07:25:11;19.50;99.90
20380;DHT22;10349;48.666;8.948;2023-07-20T07:27:36;19.50;99.90
20380;DHT22;10349;48.666;8.948;2023-07-20T07:30:03;19.50;99.90
20380;DHT22;10349;48.666;8.948;2023-07-20T07:32:29;19.40;99.90
20380;DHT22;10349;48.666;8.948;2023-07-20T07:34:54;19.30;99.90
20380;DHT22;10349;48.666;8.948;2023-07-20T07:37:20;19.50;99.90
20380;DHT22;10349;48.666;8.948;2023-07-20T07:39:46;19.50;99.90
20380;DHT22;10349;48.666;8.948;2023-07-20T07:42:12;19.60;99.90
20380;DHT22;10349;48.666;8.948;2023-07-20T07:44:38;19.80;99.90
20380;DHT22;10349;48.666;8.948;2023-07-20T07:47:04;19.90;99.90
20380;DHT22;10349;48.666;8.948;2023-07-20T07:49:30;20.00;99.90
20380;DHT22;10349;48.666;8.948;2023-07-20T07:51:56;20.10;99.90
20380;DHT22;10349;48.666;8.948;2023-07-20T07:54:22;20.10;99.90
20380;DHT22;10349;48.666;8.948;2023-07-20T07:56:48;20.00;99.90
20380;DHT22;10349;48.666;8.948;2023-07-20T07:59:14;19.90;99.90
20380;DHT22;10349;48.666;8.948;2023-07-20T08:01:39;20.00;99.90
20380;DHT22;10349;48.666;8.948;2023-07-20T08:04:05;20.10;99.90
20380;DHT22;10349;48.666;8.948;2023-07-20T08:06:31;20.10;99.90
20380;DHT22;10349;48.666;8.948;2023-07-20T08:08:57;20.20;99.90
20380;DHT22;10349;48.666;8.948;2023-07-20T08:11:23;20.40;99.90
20380;DHT22;10349;48.666;8.948;2023-07-20T08:13:49;20.60;99.90
20380;DHT22;10349;48.666;8.948;2023-07-20T08:16:15;20.70;99.90
20380;DHT22;10349;48.666;8.948;2023-07-20T08:18:40;20.50;99.90
20380;DHT22;10349;48.666;8.948;2023-07-20T08:21:06;20.30;99.90
20380;DHT22;10349;48.666;8.948;2023-07-20T08:23:32;20.20;99.90
20380;DHT22;10349;48.666;8.948;2023-07-20T08:25:57;20.30;99.90
20380;DHT22;10349;48.666;8.948;2023-07-20T08:28:23;20.40;99.90
20380;DHT22;10349;48.666;8.948;2023-07-20T08:30:49;20.30;99.90
20380;DHT22;10349;48.666;8.948;2023-07-20T08:33:20;20.20;99.90
20380;DHT22;10349;48.666;8.948;2023-07-20T08:35:46;20.40;99.90
20380;DHT22;10349;48.666;8.948;2023-07-20T08:38:12;20.60;99.90
20380;DHT22;10349;48.666;8.948;2023-07-20T08:40:56;20.90;99.90
20380;DHT22;10349;48.666;8.948;2023-07-20T08:43:23;21.20;99.90
20380;DHT22;10349;48.666;8.948;2023-07-20T08:45:54;21.30;99.90
20380;DHT22;10349;48.666;8.948;2023-07-20T08:48:22;21.30;99.90
20380;DHT22;10349;48.666;8.948;2023-07-20T08:50:51;21.40;99.90
20380;DHT22;10349;48.666;8.948;2023-07-20T08:53:17;21.10;99.90
20380;DHT22;10349;48.666;8.948;2023-07-20T08:55:44;21.00;99.90
20380;DHT22;10349;48.666;8.948;2023-07-20T08:58:13;21.10;99.90
20380;DHT22;10349;48.666;8.948;2023-07-20T09:00:41;21.10;99.90
20380;DHT22;10349;48.666;8.948;2023-07-20T09:03:07;21.20;99.90
20380;DHT22;10349;48.666;8.948;2023-07-20T09:05:34;21.30;99.90
20380;DHT22;10349;48.666;8.948;2023-07-20T09:08:01;21.30;99.90
20380;DHT22;10349;48.666;8.948;2023-07-20T09:10:29;21.60;99.90
20380;DHT22;10349;48.666;8.948;2023-07-20T09:12:55;21.70;99.90
20380;DHT22;10349;48.666;8.948;2023-07-20T09:15:22;21.70;99.90
20380;DHT22;10349;48.666;8.948;2023-07-20T09:17:49;21.60;99.90
20380;DHT22;10349;48.666;8.948;2023-07-20T09:20:17;21.50;99.90
20380;DHT22;10349;48.666;8.948;2023-07-20T09:22:44;21.50;99.90
20380;DHT22;10349;48.666;8.948;2023-07-20T09:25:14;21.40;99.90
20380;DHT22;10349;48.666;8.948;2023-07-20T09:27:43;21.40;99.90
20380;DHT22;10349;48.666;8.948;2023-07-20T09:30:09;21.30;99.90
20380;DHT22;10349;48.666;8.948;2023-07-20T09:32:43;21.30;99.90
20380;DHT22;10349;48.666;8.948;2023-07-20T09:35:17;21.40;99.90
20380;DHT22;10349;48.666;8.948;2023-07-20T09:37:59;21.60;99.90
20380;DHT22;10349;48.666;8.948;2023-07-20T09:40:26;21.80;99.90
20380;DHT22;10349;48.666;8.948;2023-07-20T09:42:53;22.00;99.90
20380;DHT22;10349;48.666;8.948;2023-07-20T09:45:50;22.30;99.90
20380;DHT22;10349;48.666;8.948;2023-07-20T09:48:14;22.40;99.90
20380;DHT22;10349;48.666;8.948;2023-07-20T09:50:41;22.40;99.90
20380;DHT22;10349;48.666;8.948;2023-07-20T09:53:13;22.30;99.90
20380;DHT22;10349;48.666;8.948;2023-07-20T09:55:40;22.40;99.90
20380;DHT22;10349;48.666;8.948;2023-07-20T09:58:08;22.50;99.90
20380;DHT22;10349;48.666;8.948;2023-07-20T10:00:36;22.60;99.90
20380;DHT22;10349;48.666;8.948;2023-07-20T10:03:04;22.90;99.90
20380;DHT22;10349;48.666;8.948;2023-07-20T10:05:33;23.10;99.90
20380;DHT22;10349;48.666;8.948;2023-07-20T10:08:02;23.40;99.90
20380;DHT22;10349;48.666;8.948;2023-07-20T10:10:29;23.40;99.90
20380;DHT22;10349;48.666;8.948;2023-07-20T10:12:57;23.50;99.90
20380;DHT22;10349;48.666;8.948;2023-07-20T10:15:33;23.30;99.90
20380;DHT22;10349;48.666;8.948;2023-07-20T10:20:40;23.20;99.90
20380;DHT22;10349;48.666;8.948;2023-07-20T10:23:09;23.30;99.90
20380;DHT22;10349;48.666;8.948;2023-07-20T10:25:36;23.40;99.90
20380;DHT22;10349;48.666;8.948;2023-07-20T10:28:06;23.60;99.90
20380;DHT22;10349;48.666;8.948;2023-07-20T10:30:33;23.30;99.90
20380;DHT22;10349;48.666;8.948;2023-07-20T10:33:04;23.20;99.90
20380;DHT22;10349;48.666;8.948;2023-07-20T10:35:30;23.20;99.90
20380;DHT22;10349;48.666;8.948;2023-07-20T10:38:03;23.10;99.90
20380;DHT22;10349;48.666;8.948;2023-07-20T10:43:09;23.20;99.90
20380;DHT22;10349;48.666;8.948;2023-07-20T10:45:52;23.40;99.90
20380;DHT22;10349;48.666;8.948;2023-07-20T10:48:21;23.50;99.90
20380;DHT22;10349;48.666;8.948;2023-07-20T10:53:35;23.80;99.90
20380;DHT22;10349;48.666;8.948;2023-07-20T10:56:14;23.80;99.90
20380;DHT22;10349;48.666;8.948;2023-07-20T10:58:44;23.80;99.90
20380;DHT22;10349;48.666;8.948;2023-07-20T11:01:13;23.70;99.90
20380;DHT22;10349;48.666;8.948;2023-07-20T11:03:40;23.80;99.90
20380;DHT22;10349;48.666;8.948;2023-07-20T11:09:12;24.30;99.90
20380;DHT22;10349;48.666;8.948;2023-07-20T11:11:47;24.00;99.90
20380;DHT22;10349;48.666;8.948;2023-07-20T11:14:23;23.90;99.90
20380;DHT22;10349;48.666;8.948;2023-07-20T11:16:50;24.00;99.90
20380;DHT22;10349;48.666;8.948;2023-07-20T11:19:21;24.10;99.90
20380;DHT22;10349;48.666;8.948;2023-07-20T11:21:53;24.10;99.90
20380;DHT22;10349;48.666;8.948;2023-07-20T11:24:19;24.40;99.90
20380;DHT22;10349;48.666;8.948;2023-07-20T11:26:52;24.50;99.90
20380;DHT22;10349;48.666;8.948;2023-07-20T11:29:20;24.60;99.90
20380;DHT22;10349;48.666;8.948;2023-07-20T11:31:46;24.70;99.90
20380;DHT22;10349;48.666;8.948;2023-07-20T11:34:18;24.90;99.90
20380;DHT22;10349;48.666;8.948;2023-07-20T11:36:46;25.10;99.90
20380;DHT22;10349;48.666;8.948;2023-07-20T11:39:17;25.30;99.90
20380;DHT22;10349;48.666;8.948;2023-07-20T11:41:49;25.20;99.90
20380;DHT22;10349;48.666;8.948;2023-07-20T11:44:28;25.40;99.90
20380;DHT22;10349;48.666;8.948;2023-07-20T11:47:12;25.50;99.90
20380;DHT22;10349;48.666;8.948;2023-07-20T11:49:42;25.50;99.90
20380;DHT22;10349;48.666;8.948;2023-07-20T11:52:11;25.60;99.90
20380;DHT22;10349;48.666;8.948;2023-07-20T11:54:42;25.60;99.90
20380;DHT22;10349;48.666;8.948;2023-07-20T11:57:19;25.40;99.90
20380;DHT22;10349;48.666;8.948;2023-07-20T11:59:55;25.00;99.90
20380;DHT22;10349;48.666;8.948;2023-07-20T12:02:23;25.00;99.90
20380;DHT22;10349;48.666;8.948;2023-07-20T12:04:51;24.90;99.90
20380;DHT22;10349;48.666;8.948;2023-07-20T12:07:18;25.10;99.90
20380;DHT22;10349;48.666;8.948;2023-07-20T12:10:03;25.10;99.90
20380;DHT22;10349;48.666;8.948;2023-07-20T12:12:34;25.00;99.90
20380;DHT22;10349;48.666;8.948;2023-07-20T12:15:25;25.00;99.90
20380;DHT22;10349;48.666;8.948;2023-07-20T12:18:02;25.00;99.90
20380;DHT22;10349;48.666;8.948;2023-07-20T12:20:35;24.90;99.90
20380;DHT22;10349;48.666;8.948;2023-07-20T12:23:08;25.00;99.90
20380;DHT22;10349;48.666;8.948;2023-07-20T12:25:40;25.10;99.90
20380;DHT22;10349;48.666;8.948;2023-07-20T12:28:13;25.10;99.90
20380;DHT22;10349;48.666;8.948;2023-07-20T12:30:41;25.10;99.90
20380;DHT22;10349;48.666;8.948;2023-07-20T12:33:08;25.30;99.90
20380;DHT22;10349;48.666;8.948;2023-07-20T12:35:34;25.40;99.90
20380;DHT22;10349;48.666;8.948;2023-07-20T12:38:00;25.40;99.90
20380;DHT22;10349;48.666;8.948;2023-07-20T12:40:26;25.20;99.90
20380;DHT22;10349;48.666;8.948;2023-07-20T12:42:52;25.10;99.90
20380;DHT22;10349;48.666;8.948;2023-07-20T12:45:18;24.90;99.90
20380;DHT22;10349;48.666;8.948;2023-07-20T12:47:43;25.00;99.90
20380;DHT22;10349;48.666;8.948;2023-07-20T12:50:10;25.20;99.90
20380;DHT22;10349;48.666;8.948;2023-07-20T12:52:37;25.20;99.90
20380;DHT22;10349;48.666;8.948;2023-07-20T12:55:07;25.10;99.90
20380;DHT22;10349;48.666;8.948;2023-07-20T12:57:37;25.20;99.90
20380;DHT22;10349;48.666;8.948;2023-07-20T13:00:05;25.20;99.90
20380;DHT22;10349;48.666;8.948;2023-07-20T13:02:32;25.10;99.90
20380;DHT22;10349;48.666;8.948;2023-07-20T13:04:58;24.80;99.90
20380;DHT22;10349;48.666;8.948;2023-07-20T13:07:32;24.80;99.90
20380;DHT22;10349;48.666;8.948;2023-07-20T13:09:59;24.90;99.90
20380;DHT22;10349;48.666;8.948;2023-07-20T13:12:30;25.00;99.90
20380;DHT22;10349;48.666;8.948;2023-07-20T13:14:56;25.10;99.90
20380;DHT22;10349;48.666;8.948;2023-07-20T13:17:22;24.90;99.90
20380;DHT22;10349;48.666;8.948;2023-07-20T13:19:48;25.00;99.90
20380;DHT22;10349;48.666;8.948;2023-07-20T13:25:03;25.20;99.90
20380;DHT22;10349;48.666;8.948;2023-07-20T13:27:28;25.40;99.90
20380;DHT22;10349;48.666;8.948;2023-07-20T13:29:55;25.10;99.90
20380;DHT22;10349;48.666;8.948;2023-07-20T13:32:22;25.10;99.90
20380;DHT22;10349;48.666;8.948;2023-07-20T13:34:48;25.20;99.90
20380;DHT22;10349;48.666;8.948;2023-07-20T13:37:14;25.40;99.90
20380;DHT22;10349;48.666;8.948;2023-07-20T13:39:41;25.60;99.90
20380;DHT22;10349;48.666;8.948;2023-07-20T13:42:07;25.70;99.90
20380;DHT22;10349;48.666;8.948;2023-07-20T13:44:34;25.80;99.80
20380;DHT22;10349;48.666;8.948;2023-07-20T13:47:01;25.70;99.90
20380;DHT22;10349;48.666;8.948;2023-07-20T13:49:27;25.50;99.90
20380;DHT22;10349;48.666;8.948;2023-07-20T13:51:53;25.10;99.90
20380;DHT22;10349;48.666;8.948;2023-07-20T13:54:18;24.70;99.90
20380;DHT22;10349;48.666;8.948;2023-07-20T13:56:44;24.50;99.90
20380;DHT22;10349;48.666;8.948;2023-07-20T13:59:10;24.40;99.90
20380;DHT22;10349;48.666;8.948;2023-07-20T14:01:35;24.20;99.90
20380;DHT22;10349;48.666;8.948;2023-07-20T14:04:02;24.10;99.90
20380;DHT22;10349;48.666;8.948;2023-07-20T14:06:32;24.10;99.90
20380;DHT22;10349;48.666;8.948;2023-07-20T14:08:58;24.30;99.90
20380;DHT22;10349;48.666;8.948;2023-07-20T14:11:27;24.50;99.90
20380;DHT22;10349;48.666;8.948;2023-07-20T14:13:53;24.50;99.90
20380;DHT22;10349;48.666;8.948;2023-07-20T14:16:22;24.50;99.90
20380;DHT22;10349;48.666;8.948;2023-07-20T14:18:49;24.50;99.90
20380;DHT22;10349;48.666;8.948;2023-07-20T14:21:16;24.40;99.90
20380;DHT22;10349;48.666;8.948;2023-07-20T14:23:42;24.40;99.90
20380;DHT22;10349;48.666;8.948;2023-07-20T14:26:07;24.70;99.90
20380;DHT22;10349;48.666;8.948;2023-07-20T14:28:35;24.60;99.90
20380;DHT22;10349;48.666;8.948;2023-07-20T14:31:00;24.80;99.90
20380;DHT22;10349;48.666;8.948;2023-07-20T14:33:26;24.90;99.90
20380;DHT22;10349;48.666;8.948;2023-07-20T14:35:52;24.90;99.90
20380;DHT22;10349;48.666;8.948;2023-07-20T14:38:18;24.80;99.90
20380;DHT22;10349;48.666;8.948;2023-07-20T14:40:43;24.70;99.90
20380;DHT22;10349;48.666;8.948;2023-07-20T14:43:10;24.70;99.90
20380;DHT22;10349;48.666;8.948;2023-07-20T14:45:35;24.80;99.90
20380;DHT22;10349;48.666;8.948;2023-07-20T14:48:03;24.90;99.90
20380;DHT22;10349;48.666;8.948;2023-07-20T14:50:29;25.00;99.90
20380;DHT22;10349;48.666;8.948;2023-07-20T14:52:55;25.00;99.90
20380;DHT22;10349;48.666;8.948;2023-07-20T14:55:20;24.90;99.90
20380;DHT22;10349;48.666;8.948;2023-07-20T14:57:48;24.90;99.90
20380;DHT22;10349;48.666;8.948;2023-07-20T15:00:14;25.10;99.90
20380;DHT22;10349;48.666;8.948;2023-07-20T15:02:41;25.50;99.90
20380;DHT22;10349;48.666;8.948;2023-07-20T15:05:07;25.80;99.90
20380;DHT22;10349;48.666;8.948;2023-07-20T15:07:33;25.80;99.90
20380;DHT22;10349;48.666;8.948;2023-07-20T15:10:00;25.90;99.90
20380;DHT22;10349;48.666;8.948;2023-07-20T15:12:26;26.00;99.90
20380;DHT22;10349;48.666;8.948;2023-07-20T15:15:07;26.00;99.90
20380;DHT22;10349;48.666;8.948;2023-07-20T15:17:34;26.00;99.90
20380;DHT22;10349;48.666;8.948;2023-07-20T15:20:00;25.90;99.90
20380;DHT22;10349;48.666;8.948;2023-07-20T15:22:30;25.60;99.90
20380;DHT22;10349;48.666;8.948;2023-07-20T15:24:56;25.60;99.90
20380;DHT22;10349;48.666;8.948;2023-07-20T15:27:22;25.50;99.90
20380;DHT22;10349;48.666;8.948;2023-07-20T15:29:49;25.50;99.90
20380;DHT22;10349;48.666;8.948;2023-07-20T15:32:15;25.50;99.90
20380;DHT22;10349;48.666;8.948;2023-07-20T15:34:42;25.80;99.90
20380;DHT22;10349;48.666;8.948;2023-07-20T15:37:09;25.90;99.90
20380;DHT22;10349;48.666;8.948;2023-07-20T15:39:36;25.70;99.90
20380;DHT22;10349;48.666;8.948;2023-07-20T15:42:02;25.70;99.90
20380;DHT22;10349;48.666;8.948;2023-07-20T15:44:28;25.90;99.90
20380;DHT22;10349;48.666;8.948;2023-07-20T15:46:54;26.00;99.90
20380;DHT22;10349;48.666;8.948;2023-07-20T15:49:20;26.30;99.90
20380;DHT22;10349;48.666;8.948;2023-07-20T15:51:46;26.30;99.90
20380;DHT22;10349;48.666;8.948;2023-07-20T15:54:13;26.20;99.60